createdAt,value
2019-01-29T00:00:02.742Z,2.59
2019-01-29T00:01:02.779Z,2.61
2019-01-29T00:02:02.674Z,2.59
2019-01-29T00:03:02.688Z,2.53
2019-01-29T00:04:02.658Z,2.53
2019-01-29T00:05:02.643Z,2.48
2019-01-29T00:06:02.630Z,2.63
2019-01-29T00:07:02.626Z,2.53
2019-01-29T00:08:02.609Z,2.59
2019-01-29T00:09:02.627Z,2.52
2019-01-29T00:10:02.592Z,2.45
2019-01-29T00:11:02.583Z,2.49
2019-01-29T00:12:02.572Z,2.48
2019-01-29T00:13:02.568Z,2.48
2019-01-29T00:14:02.540Z,2.43
2019-01-29T00:15:02.545Z,2.42
2019-01-29T00:16:02.516Z,2.45
2019-01-29T00:17:02.518Z,2.45
2019-01-29T00:18:02.571Z,2.45
2019-01-29T00:19:02.482Z,2.43
2019-01-29T00:20:02.492Z,2.49
2019-01-29T00:21:02.462Z,2.41
2019-01-29T00:22:02.452Z,2.49
2019-01-29T00:23:02.440Z,2.41
2019-01-29T00:24:02.448Z,2.46
2019-01-29T00:25:02.419Z,2.38
2019-01-29T00:26:02.406Z,2.45
2019-01-29T00:27:02.396Z,2.43
2019-01-29T00:28:02.393Z,2.43
2019-01-29T00:29:02.391Z,2.36
2019-01-29T00:30:02.376Z,2.34
2019-01-29T00:31:02.353Z,2.39
2019-01-29T00:32:02.341Z,2.36
2019-01-29T00:33:02.339Z,2.38
2019-01-29T00:34:02.323Z,2.30
2019-01-29T00:35:02.344Z,2.28
2019-01-29T00:36:02.296Z,2.45
2019-01-29T00:37:02.302Z,2.42
2019-01-29T00:38:02.285Z,2.38
2019-01-29T00:39:02.283Z,2.24
2019-01-29T00:40:02.274Z,2.34
2019-01-29T00:41:02.283Z,2.34
2019-01-29T00:42:02.229Z,2.21
2019-01-29T00:43:02.214Z,2.36
2019-01-29T00:44:02.206Z,2.30
2019-01-29T00:45:02.212Z,2.36
2019-01-29T00:46:02.202Z,2.20
2019-01-29T00:47:02.175Z,2.28
2019-01-29T00:48:02.160Z,2.27
2019-01-29T00:49:02.152Z,2.27
2019-01-29T00:50:02.155Z,2.31
2019-01-29T00:51:02.128Z,2.34
2019-01-29T00:52:02.133Z,2.27
2019-01-29T00:53:02.105Z,2.30
2019-01-29T00:54:02.094Z,2.31
2019-01-29T00:55:02.101Z,2.27
2019-01-29T00:56:02.093Z,2.24
2019-01-29T00:57:02.072Z,2.21
2019-01-29T00:58:02.054Z,2.21
2019-01-29T00:59:02.046Z,2.24
2019-01-29T01:00:02.030Z,2.18
2019-01-29T01:01:02.033Z,2.23
2019-01-29T01:02:02.015Z,2.17
2019-01-29T01:03:01.999Z,2.12
2019-01-29T01:04:01.982Z,2.23
2019-01-29T01:05:01.983Z,2.24
2019-01-29T01:06:01.980Z,2.12
2019-01-29T01:07:01.949Z,2.30
2019-01-29T01:08:01.942Z,2.14
2019-01-29T01:09:01.930Z,2.23
2019-01-29T01:10:01.924Z,2.30
2019-01-29T01:11:01.938Z,2.23
2019-01-29T01:12:01.897Z,2.12
2019-01-29T01:13:01.885Z,2.16
2019-01-29T01:14:01.871Z,2.24
2019-01-29T01:15:01.862Z,2.17
2019-01-29T01:16:01.875Z,2.14
2019-01-29T01:17:01.848Z,2.24
2019-01-29T01:18:01.826Z,2.14
2019-01-29T01:19:01.816Z,2.23
2019-01-29T01:20:01.805Z,2.17
2019-01-29T01:21:01.814Z,2.16
2019-01-29T01:22:01.815Z,2.20
2019-01-29T01:23:01.785Z,2.10
2019-01-29T01:24:01.759Z,2.16
2019-01-29T01:25:01.761Z,2.12
2019-01-29T01:26:01.741Z,2.03
2019-01-29T01:27:01.726Z,2.14
2019-01-29T01:28:01.746Z,2.03
2019-01-29T01:29:01.704Z,2.07
2019-01-29T01:30:01.697Z,2.07
2019-01-29T01:31:01.688Z,2.14
2019-01-29T01:32:01.685Z,2.09
2019-01-29T01:33:01.661Z,2.10
2019-01-29T01:34:01.646Z,2.10
2019-01-29T01:35:01.651Z,2.05
2019-01-29T01:36:01.634Z,2.07
2019-01-29T01:37:01.636Z,2.05
2019-01-29T01:38:01.608Z,1.99
2019-01-29T01:39:01.593Z,2.00
2019-01-29T01:40:01.587Z,2.05
2019-01-29T01:41:01.573Z,2.07
2019-01-29T01:42:01.598Z,2.10
2019-01-29T01:43:01.569Z,1.98
2019-01-29T01:44:01.538Z,2.06
2019-01-29T01:45:01.525Z,2.10
2019-01-29T01:46:01.515Z,2.10
2019-01-29T01:47:01.523Z,2.06
2019-01-29T01:48:01.514Z,2.10
2019-01-29T01:49:01.486Z,1.95
2019-01-29T01:50:01.489Z,1.98
2019-01-29T01:51:01.468Z,2.05
2019-01-29T01:52:01.476Z,2.02
2019-01-29T01:53:01.456Z,1.95
2019-01-29T01:54:01.428Z,2.02
2019-01-29T01:55:01.531Z,1.91
2019-01-29T01:56:01.412Z,2.00
2019-01-29T01:57:01.394Z,1.98
2019-01-29T01:58:01.421Z,2.03
2019-01-29T01:59:01.383Z,2.02
2019-01-29T02:00:01.368Z,1.95
2019-01-29T02:01:01.387Z,1.98
2019-01-29T02:02:01.380Z,1.95
2019-01-29T02:03:01.327Z,1.95
2019-01-29T02:04:01.335Z,1.91
2019-01-29T02:05:01.412Z,1.91
2019-01-29T02:06:01.294Z,1.95
2019-01-29T02:07:01.286Z,1.90
2019-01-29T02:08:01.272Z,1.88
2019-01-29T02:09:01.294Z,1.99
2019-01-29T02:10:01.251Z,1.90
2019-01-29T02:11:01.249Z,1.93
2019-01-29T02:12:01.228Z,1.98
2019-01-29T02:13:01.221Z,1.98
2019-01-29T02:14:01.234Z,1.91
2019-01-29T02:15:01.209Z,1.91
2019-01-29T02:16:01.183Z,1.98
2019-01-29T02:17:01.174Z,1.95
2019-01-29T02:18:01.165Z,1.95
2019-01-29T02:19:01.186Z,1.91
2019-01-29T02:20:01.141Z,1.91
2019-01-29T02:21:01.131Z,1.93
2019-01-29T02:22:01.155Z,1.99
2019-01-29T02:23:07.780Z,1.88
2019-01-29T02:24:02.113Z,1.90
2019-01-29T02:25:01.084Z,1.88
2019-01-29T02:26:01.089Z,1.87
2019-01-29T02:27:01.077Z,1.84
2019-01-29T02:28:01.060Z,1.88
2019-01-29T02:29:01.067Z,1.84
2019-01-29T02:30:01.055Z,1.83
2019-01-29T02:31:01.017Z,1.86
2019-01-29T02:32:01.010Z,1.84
2019-01-29T02:33:00.997Z,1.86
2019-01-29T02:34:00.999Z,1.72
2019-01-29T02:35:01.020Z,1.76
2019-01-29T02:36:00.960Z,1.76
2019-01-29T02:37:00.956Z,1.76
2019-01-29T02:38:00.941Z,1.70
2019-01-29T02:39:00.930Z,1.63
2019-01-29T02:40:00.925Z,1.65
2019-01-29T02:41:00.968Z,1.63
2019-01-29T02:42:00.906Z,1.63
2019-01-29T02:43:00.886Z,1.65
2019-01-29T02:44:00.876Z,1.68
2019-01-29T02:45:00.861Z,1.59
2019-01-29T02:46:00.868Z,1.60
2019-01-29T02:47:00.847Z,1.58
2019-01-29T02:48:00.836Z,1.60
2019-01-29T02:49:00.833Z,1.52
2019-01-29T02:50:00.824Z,1.58
2019-01-29T02:51:00.809Z,1.60
2019-01-29T02:52:00.793Z,1.55
2019-01-29T02:53:00.779Z,1.62
2019-01-29T02:54:00.766Z,1.55
2019-01-29T02:55:00.791Z,1.65
2019-01-29T02:56:00.775Z,1.58
2019-01-29T02:57:00.747Z,1.60
2019-01-29T02:58:00.720Z,1.65
2019-01-29T02:59:00.709Z,1.60
2019-01-29T03:00:00.726Z,1.60
2019-01-29T03:01:00.729Z,1.59
2019-01-29T03:02:00.677Z,1.58
2019-01-29T03:03:00.664Z,1.60
2019-01-29T03:04:00.657Z,1.59
2019-01-29T03:05:00.642Z,1.55
2019-01-29T03:06:00.655Z,1.54
2019-01-29T03:07:00.620Z,1.58
2019-01-29T03:08:00.649Z,1.55
2019-01-29T03:09:00.596Z,1.54
2019-01-29T03:10:00.594Z,1.62
2019-01-29T03:11:00.595Z,1.65
2019-01-29T03:12:00.568Z,1.66
2019-01-29T03:13:00.553Z,1.63
2019-01-29T03:14:00.541Z,1.62
2019-01-29T03:15:00.573Z,1.51
2019-01-29T03:16:00.540Z,1.63
2019-01-29T03:17:00.526Z,1.55
2019-01-29T03:18:00.498Z,1.58
2019-01-29T03:19:00.491Z,1.60
2019-01-29T03:20:00.477Z,1.63
2019-01-29T03:21:00.480Z,1.65
2019-01-29T03:22:00.493Z,1.63
2019-01-29T03:23:00.441Z,1.54
2019-01-29T03:24:00.433Z,1.60
2019-01-29T03:25:00.424Z,1.59
2019-01-29T03:26:00.431Z,1.62
2019-01-29T03:27:00.414Z,1.62
2019-01-29T03:28:00.388Z,1.44
2019-01-29T03:29:00.416Z,1.48
2019-01-29T03:30:00.379Z,1.50
2019-01-29T03:31:00.358Z,1.44
2019-01-29T03:32:00.375Z,1.55
2019-01-29T03:33:00.332Z,1.42
2019-01-29T03:34:00.323Z,1.44
2019-01-29T03:35:02.078Z,1.42
2019-01-29T03:36:00.309Z,1.40
2019-01-29T03:37:00.302Z,1.44
2019-01-29T03:38:00.274Z,1.40
2019-01-29T03:39:00.273Z,1.40
2019-01-29T03:40:00.275Z,1.41
2019-01-29T03:41:00.251Z,1.41
2019-01-29T03:42:00.251Z,1.36
2019-01-29T03:43:00.250Z,1.44
2019-01-29T03:44:00.223Z,1.41
2019-01-29T03:45:00.269Z,1.36
2019-01-29T03:46:00.191Z,1.41
2019-01-29T03:47:00.229Z,1.44
2019-01-29T03:48:00.167Z,1.44
2019-01-29T03:49:00.173Z,1.40
2019-01-29T03:50:00.289Z,1.44
2019-01-29T03:51:00.139Z,1.41
2019-01-29T03:52:00.125Z,1.40
2019-01-29T03:53:00.136Z,1.44
2019-01-29T03:54:00.105Z,1.40
2019-01-29T03:55:00.099Z,1.37
2019-01-29T03:56:00.077Z,1.30
2019-01-29T03:57:00.069Z,1.36
2019-01-29T03:58:00.060Z,1.37
2019-01-29T03:59:00.072Z,1.37
2019-01-29T04:00:00.033Z,1.37
2019-01-29T04:01:00.024Z,1.34
2019-01-29T04:02:00.022Z,1.32
2019-01-29T04:03:00.001Z,1.30
2019-01-29T04:04:00.008Z,1.22
2019-01-29T04:05:00.000Z,1.34
2019-01-29T04:05:59.968Z,1.33
2019-01-29T04:06:59.958Z,1.30
2019-01-29T04:07:59.960Z,1.24
2019-01-29T04:08:59.972Z,1.20
2019-01-29T04:09:59.933Z,1.27
2019-01-29T04:10:59.915Z,1.20
2019-01-29T04:11:59.920Z,1.23
2019-01-29T04:12:59.895Z,1.20
2019-01-29T04:13:59.909Z,1.12
2019-01-29T04:14:59.883Z,1.12
2019-01-29T04:15:59.870Z,1.11
2019-01-29T04:16:59.873Z,1.23
2019-01-29T04:17:59.835Z,1.09
2019-01-29T04:18:59.856Z,1.12
2019-01-29T04:19:59.816Z,1.15
2019-01-29T04:20:59.816Z,1.23
2019-01-29T04:21:59.792Z,1.16
2019-01-29T04:22:59.783Z,1.15
2019-01-29T04:23:59.775Z,1.12
2019-01-29T04:24:59.776Z,1.20
2019-01-29T04:25:59.753Z,1.15
2019-01-29T04:26:59.742Z,1.20
2019-01-29T04:27:59.747Z,1.20
2019-01-29T04:28:59.731Z,1.16
2019-01-29T04:29:59.730Z,1.29
2019-01-29T04:30:59.693Z,1.20
2019-01-29T04:31:59.682Z,1.27
2019-01-29T04:32:59.671Z,1.24
2019-01-29T04:33:59.693Z,1.24
2019-01-29T04:34:59.704Z,1.23
2019-01-29T04:35:59.646Z,1.24
2019-01-29T04:36:59.639Z,1.24
2019-01-29T04:37:59.619Z,1.33
2019-01-29T04:38:59.606Z,1.22
2019-01-29T04:39:59.598Z,1.24
2019-01-29T04:40:59.621Z,1.27
2019-01-29T04:41:59.585Z,1.24
2019-01-29T04:42:59.565Z,1.29
2019-01-29T04:43:59.552Z,1.24
2019-01-29T04:44:59.540Z,1.29
2019-01-29T04:45:59.556Z,1.29
2019-01-29T04:46:59.529Z,1.33
2019-01-29T04:47:59.508Z,1.23
2019-01-29T04:48:59.509Z,1.24
2019-01-29T04:49:59.489Z,1.22
2019-01-29T04:50:59.495Z,1.22
2019-01-29T04:51:59.515Z,1.26
2019-01-29T04:52:59.455Z,1.26
2019-01-29T04:53:59.445Z,1.26
2019-01-29T04:54:59.459Z,1.27
2019-01-29T04:55:59.444Z,1.23
2019-01-29T04:56:59.413Z,1.24
2019-01-29T04:57:59.398Z,1.27
2019-01-29T04:58:59.422Z,1.32
2019-01-29T04:59:59.389Z,1.33
2019-01-29T05:00:59.385Z,1.36
2019-01-29T05:01:59.381Z,1.36
2019-01-29T05:02:59.350Z,1.33
2019-01-29T05:03:59.343Z,1.34
2019-01-29T05:04:59.320Z,1.32
2019-01-29T05:05:59.348Z,1.34
2019-01-29T05:06:59.324Z,1.36
2019-01-29T05:07:59.297Z,1.33
2019-01-29T05:08:59.280Z,1.32
2019-01-29T05:09:59.273Z,1.30
2019-01-29T05:10:59.279Z,1.29
2019-01-29T05:11:59.283Z,1.26
2019-01-29T05:12:59.233Z,1.30
2019-01-29T05:13:59.222Z,1.32
2019-01-29T05:14:59.210Z,1.26
2019-01-29T05:15:59.206Z,1.29
2019-01-29T05:16:59.235Z,1.32
2019-01-29T05:17:59.187Z,1.29
2019-01-29T05:18:59.173Z,1.29
2019-01-29T05:19:59.158Z,1.24
2019-01-29T05:20:59.149Z,1.32
2019-01-29T05:21:59.159Z,1.27
2019-01-29T05:22:59.130Z,1.26
2019-01-29T05:24:06.649Z,1.26
2019-01-29T05:25:00.195Z,1.29
2019-01-29T05:25:59.101Z,1.30
2019-01-29T05:26:59.101Z,1.27
2019-01-29T05:27:59.096Z,1.23
2019-01-29T05:28:59.059Z,1.30
2019-01-29T05:29:59.048Z,1.33
2019-01-29T05:30:59.039Z,1.27
2019-01-29T05:31:59.029Z,1.33
2019-01-29T05:32:59.044Z,1.32
2019-01-29T05:33:59.021Z,1.29
2019-01-29T05:34:58.995Z,1.32
2019-01-29T05:35:58.987Z,1.33
2019-01-29T05:36:58.989Z,1.29
2019-01-29T05:37:58.991Z,1.24
2019-01-29T05:38:58.954Z,1.27
2019-01-29T05:39:58.942Z,1.27
2019-01-29T05:40:58.932Z,1.26
2019-01-29T05:41:58.933Z,1.27
2019-01-29T05:42:58.922Z,1.27
2019-01-29T05:43:58.903Z,1.14
2019-01-29T05:44:58.895Z,1.20
2019-01-29T05:45:58.876Z,1.16
2019-01-29T05:46:58.871Z,1.20
2019-01-29T05:47:58.883Z,1.18
2019-01-29T05:48:58.844Z,1.15
2019-01-29T05:49:58.839Z,1.12
2019-01-29T05:50:58.821Z,1.20
2019-01-29T05:51:58.814Z,1.20
2019-01-29T05:52:58.829Z,1.15
2019-01-29T05:53:58.787Z,1.14
2019-01-29T05:54:58.783Z,1.18
2019-01-29T05:55:58.779Z,1.15
2019-01-29T05:56:58.759Z,1.14
2019-01-29T05:57:58.766Z,1.22
2019-01-29T05:58:58.756Z,1.05
2019-01-29T05:59:58.725Z,1.22
2019-01-29T06:00:58.713Z,1.06
2019-01-29T06:01:58.712Z,1.11
2019-01-29T06:02:58.695Z,1.22
2019-01-29T06:03:58.711Z,1.11
2019-01-29T06:04:58.669Z,1.12
2019-01-29T06:05:58.670Z,1.08
2019-01-29T06:06:58.648Z,1.09
2019-01-29T06:07:58.634Z,1.22
2019-01-29T06:08:58.651Z,1.26
2019-01-29T06:09:58.620Z,1.20
2019-01-29T06:10:59.433Z,1.18
2019-01-29T06:11:58.597Z,1.08
2019-01-29T06:12:58.765Z,1.09
2019-01-29T06:13:59.034Z,1.18
2019-01-29T06:15:01.440Z,1.12
2019-01-29T06:15:58.678Z,1.15
2019-01-29T06:16:58.739Z,1.14
2019-01-29T06:17:58.543Z,1.18
2019-01-29T06:18:58.559Z,1.24
2019-01-29T06:19:59.904Z,1.26
2019-01-29T06:20:59.461Z,1.20
2019-01-29T06:21:58.483Z,1.18
2019-01-29T06:22:59.447Z,1.18
2019-01-29T06:23:58.650Z,1.09
2019-01-29T06:24:59.429Z,1.15
2019-01-29T06:25:58.767Z,1.08
2019-01-29T06:26:58.722Z,1.20
2019-01-29T06:27:58.425Z,1.16
2019-01-29T06:28:58.471Z,1.18
2019-01-29T06:29:58.520Z,1.12
2019-01-29T06:30:58.394Z,1.11
2019-01-29T06:31:58.543Z,1.02
2019-01-29T06:32:58.416Z,1.14
2019-01-29T06:33:58.499Z,1.15
2019-01-29T06:34:58.364Z,1.16
2019-01-29T06:35:58.359Z,1.14
2019-01-29T06:36:58.442Z,1.18
2019-01-29T06:37:58.559Z,1.15
2019-01-29T06:38:58.305Z,1.18
2019-01-29T06:39:58.287Z,1.11
2019-01-29T06:40:58.291Z,1.23
2019-01-29T06:41:58.263Z,1.18
2019-01-29T06:42:58.262Z,1.22
2019-01-29T06:43:58.242Z,1.09
2019-01-29T06:44:58.246Z,1.08
2019-01-29T06:45:58.232Z,1.11
2019-01-29T06:46:58.207Z,1.06
2019-01-29T06:47:58.193Z,1.02
2019-01-29T06:48:58.185Z,1.00
2019-01-29T06:49:58.176Z,0.97
2019-01-29T06:50:58.187Z,0.98
2019-01-29T06:51:58.154Z,0.97
2019-01-29T06:52:58.138Z,0.91
2019-01-29T06:53:58.149Z,0.88
2019-01-29T06:54:58.126Z,0.84
2019-01-29T06:55:58.123Z,0.93
2019-01-29T06:56:58.107Z,0.91
2019-01-29T06:57:58.102Z,0.86
2019-01-29T06:58:58.087Z,0.87
2019-01-29T06:59:58.088Z,0.86
2019-01-29T07:00:58.079Z,0.72
2019-01-29T07:01:58.077Z,0.80
2019-01-29T07:02:58.037Z,0.76
2019-01-29T07:03:58.038Z,0.78
2019-01-29T07:04:58.008Z,0.70
2019-01-29T07:05:58.028Z,0.68
2019-01-29T07:06:57.991Z,0.72
2019-01-29T07:07:57.975Z,0.62
2019-01-29T07:08:57.966Z,0.62
2019-01-29T07:09:57.951Z,0.75
2019-01-29T07:10:57.985Z,0.62
2019-01-29T07:11:58.964Z,0.65
2019-01-29T07:12:57.987Z,0.66
2019-01-29T07:13:57.922Z,0.76
2019-01-29T07:14:57.931Z,0.66
2019-01-29T07:15:57.911Z,0.66
2019-01-29T07:16:57.959Z,0.68
2019-01-29T07:17:57.883Z,0.68
2019-01-29T07:18:57.860Z,0.69
2019-01-29T07:19:57.853Z,0.68
2019-01-29T07:20:57.835Z,0.70
2019-01-29T07:21:57.854Z,0.66
2019-01-29T07:22:57.830Z,0.68
2019-01-29T07:23:57.810Z,0.66
2019-01-29T07:24:57.791Z,0.65
2019-01-29T07:25:57.796Z,0.62
2019-01-29T07:26:57.800Z,0.68
2019-01-29T07:27:57.759Z,0.69
2019-01-29T07:28:57.754Z,0.75
2019-01-29T07:29:57.751Z,0.79
2019-01-29T07:30:57.727Z,0.78
2019-01-29T07:31:57.730Z,0.68
2019-01-29T07:32:57.708Z,0.75
2019-01-29T07:33:57.717Z,0.84
2019-01-29T07:34:57.682Z,0.69
2019-01-29T07:35:57.680Z,0.73
2019-01-29T07:36:57.669Z,0.73
2019-01-29T07:37:57.654Z,0.79
2019-01-29T07:38:57.654Z,0.75
2019-01-29T07:39:57.632Z,0.84
2019-01-29T07:40:57.615Z,0.86
2019-01-29T07:41:57.626Z,0.78
2019-01-29T07:42:57.616Z,0.84
2019-01-29T07:43:57.583Z,0.87
2019-01-29T07:44:57.573Z,0.86
2019-01-29T07:45:57.565Z,0.84
2019-01-29T07:46:57.598Z,0.83
2019-01-29T07:47:57.545Z,0.86
2019-01-29T07:48:57.538Z,0.84
2019-01-29T07:49:57.529Z,0.87
2019-01-29T07:50:57.513Z,0.86
2019-01-29T07:51:57.498Z,0.83
2019-01-29T07:52:57.512Z,0.90
2019-01-29T07:53:57.474Z,0.88
2019-01-29T07:54:57.487Z,0.83
2019-01-29T07:55:57.466Z,0.90
2019-01-29T07:56:57.446Z,0.94
2019-01-29T07:57:57.430Z,0.94
2019-01-29T07:58:57.448Z,0.84
2019-01-29T07:59:57.408Z,0.93
2019-01-29T08:00:57.400Z,0.87
2019-01-29T08:01:57.386Z,0.98
2019-01-29T08:02:57.379Z,0.98
2019-01-29T08:03:57.382Z,0.90
2019-01-29T08:04:57.362Z,0.97
2019-01-29T08:05:57.350Z,1.02
2019-01-29T08:06:57.345Z,1.04
2019-01-29T08:07:57.322Z,1.00
2019-01-29T08:08:57.331Z,1.02
2019-01-29T08:09:57.303Z,1.00
2019-01-29T08:10:57.295Z,1.02
2019-01-29T08:11:57.283Z,0.98
2019-01-29T08:12:57.278Z,1.02
2019-01-29T08:13:57.309Z,1.06
2019-01-29T08:14:57.247Z,1.08
2019-01-29T08:15:57.254Z,1.06
2019-01-29T08:16:57.236Z,1.14
2019-01-29T08:17:57.218Z,1.08
2019-01-29T08:18:57.199Z,1.12
2019-01-29T08:19:57.210Z,1.16
2019-01-29T08:20:57.178Z,1.16
2019-01-29T08:21:57.172Z,1.15
2019-01-29T08:22:57.167Z,1.12
2019-01-29T08:23:57.152Z,1.18
2019-01-29T08:25:01.819Z,1.09
2019-01-29T08:25:58.128Z,1.12
2019-01-29T08:26:57.113Z,1.12
2019-01-29T08:27:57.102Z,1.16
2019-01-29T08:28:57.124Z,1.24
2019-01-29T08:29:57.081Z,1.20
2019-01-29T08:30:57.073Z,1.23
2019-01-29T08:31:57.058Z,1.26
2019-01-29T08:32:57.057Z,1.29
2019-01-29T08:33:57.053Z,1.32
2019-01-29T08:34:57.047Z,1.27
2019-01-29T08:35:57.019Z,1.27
2019-01-29T08:36:57.018Z,1.23
2019-01-29T08:37:56.997Z,1.27
2019-01-29T08:38:56.985Z,1.32
2019-01-29T08:39:56.995Z,1.30
2019-01-29T08:40:56.960Z,1.29
2019-01-29T08:41:56.955Z,1.36
2019-01-29T08:42:56.938Z,1.32
2019-01-29T08:43:56.926Z,1.33
2019-01-29T08:44:56.939Z,1.33
2019-01-29T08:45:56.924Z,1.36
2019-01-29T08:46:56.910Z,1.34
2019-01-29T08:47:56.888Z,1.37
2019-01-29T08:48:56.876Z,1.34
2019-01-29T08:49:56.894Z,1.30
2019-01-29T08:50:56.852Z,1.32
2019-01-29T08:51:56.847Z,1.34
2019-01-29T08:52:56.829Z,1.40
2019-01-29T08:53:56.827Z,1.44
2019-01-29T08:54:56.822Z,1.47
2019-01-29T08:55:56.813Z,1.44
2019-01-29T08:56:56.786Z,1.51
2019-01-29T08:57:56.775Z,1.55
2019-01-29T08:58:56.762Z,1.45
2019-01-29T08:59:56.762Z,1.60
2019-01-29T09:00:56.761Z,1.55
2019-01-29T09:01:56.734Z,1.59
2019-01-29T09:02:56.718Z,1.58
2019-01-29T09:03:56.718Z,1.72
2019-01-29T09:04:56.718Z,1.62
2019-01-29T09:05:56.706Z,1.66
2019-01-29T09:06:56.678Z,1.66
2019-01-29T09:07:56.675Z,1.66
2019-01-29T09:08:56.657Z,1.65
2019-01-29T09:09:56.645Z,1.76
2019-01-29T09:10:56.659Z,1.77
2019-01-29T09:11:56.619Z,1.73
2019-01-29T09:12:56.617Z,1.86
2019-01-29T09:13:56.602Z,1.79
2019-01-29T09:14:56.597Z,1.88
2019-01-29T09:15:56.578Z,1.87
2019-01-29T09:16:56.584Z,1.93
2019-01-29T09:17:56.558Z,1.87
2019-01-29T09:18:56.558Z,1.98
2019-01-29T09:19:56.547Z,2.02
2019-01-29T09:20:56.559Z,2.10
2019-01-29T09:21:56.511Z,2.10
2019-01-29T09:22:56.498Z,2.20
2019-01-29T09:23:56.496Z,2.14
2019-01-29T09:24:56.482Z,2.14
2019-01-29T09:25:56.473Z,2.23
2019-01-29T09:26:56.474Z,2.21
2019-01-29T09:27:56.445Z,2.24
2019-01-29T09:28:56.434Z,2.31
2019-01-29T09:29:56.425Z,2.24
2019-01-29T09:30:56.419Z,2.18
2019-01-29T09:31:56.426Z,2.25
2019-01-29T09:32:56.399Z,2.45
2019-01-29T09:33:56.390Z,2.45
2019-01-29T09:34:56.386Z,2.43
2019-01-29T09:35:56.358Z,2.49
2019-01-29T09:36:56.382Z,2.41
2019-01-29T09:37:56.342Z,2.46
2019-01-29T09:38:56.327Z,2.52
2019-01-29T09:39:56.336Z,2.43
2019-01-29T09:40:56.307Z,2.49
2019-01-29T09:41:56.294Z,2.42
2019-01-29T09:42:56.297Z,2.43
2019-01-29T09:43:56.271Z,2.45
2019-01-29T09:44:56.262Z,2.46
2019-01-29T09:45:56.246Z,2.52
2019-01-29T09:46:56.234Z,2.46
2019-01-29T09:47:56.245Z,2.49
2019-01-29T09:48:56.219Z,2.46
2019-01-29T09:49:56.198Z,2.48
2019-01-29T09:50:56.185Z,2.43
2019-01-29T09:51:56.177Z,2.39
2019-01-29T09:52:56.198Z,2.43
2019-01-29T09:53:56.159Z,2.46
2019-01-29T09:54:56.153Z,2.41
2019-01-29T09:55:56.132Z,2.46
2019-01-29T09:56:56.129Z,2.39
2019-01-29T09:57:56.141Z,2.35
2019-01-29T09:58:56.101Z,2.36
2019-01-29T09:59:56.089Z,2.28
2019-01-29T10:00:56.081Z,2.34
2019-01-29T10:01:56.070Z,2.36
2019-01-29T10:02:56.150Z,2.39
2019-01-29T10:03:56.056Z,2.35
2019-01-29T10:04:56.036Z,2.48
2019-01-29T10:05:56.026Z,2.39
2019-01-29T10:06:56.012Z,2.45
2019-01-29T10:07:56.020Z,2.46
2019-01-29T10:08:56.004Z,2.41
2019-01-29T10:09:55.979Z,2.46
2019-01-29T10:10:55.980Z,2.41
2019-01-29T10:11:55.958Z,2.46
2019-01-29T10:12:55.965Z,2.38
2019-01-29T10:13:55.956Z,2.41
2019-01-29T10:14:55.927Z,2.42
2019-01-29T10:15:55.912Z,2.42
2019-01-29T10:16:55.916Z,2.36
2019-01-29T10:17:55.894Z,2.36
2019-01-29T10:18:55.910Z,2.39
2019-01-29T10:20:02.527Z,2.41
2019-01-29T10:20:56.864Z,2.41
2019-01-29T10:21:55.849Z,2.39
2019-01-29T10:22:55.859Z,2.38
2019-01-29T10:23:55.852Z,2.42
2019-01-29T10:24:55.829Z,2.43
2019-01-29T10:25:55.816Z,2.38
2019-01-29T10:26:55.815Z,2.45
2019-01-29T10:27:55.784Z,2.41
2019-01-29T10:28:55.802Z,2.41
2019-01-29T10:29:55.760Z,2.42
2019-01-29T10:30:55.744Z,2.48
2019-01-29T10:31:55.732Z,2.48
2019-01-29T10:32:55.724Z,2.42
2019-01-29T10:33:55.775Z,2.42
2019-01-29T10:34:55.786Z,2.48
2019-01-29T10:35:55.703Z,2.46
2019-01-29T10:36:55.679Z,2.43
2019-01-29T10:37:55.663Z,2.41
2019-01-29T10:38:55.660Z,2.41
2019-01-29T10:39:55.665Z,2.41
2019-01-29T10:40:55.649Z,2.39
2019-01-29T10:41:55.620Z,2.46
2019-01-29T10:42:55.615Z,2.41
2019-01-29T10:43:55.623Z,2.36
2019-01-29T10:44:55.778Z,2.35
2019-01-29T10:45:55.580Z,2.30
2019-01-29T10:46:55.569Z,2.36
2019-01-29T10:47:55.555Z,2.39
2019-01-29T10:48:55.557Z,2.42
2019-01-29T10:49:55.574Z,2.30
2019-01-29T10:50:55.526Z,2.34
2019-01-29T10:51:55.516Z,2.36
2019-01-29T10:52:55.500Z,2.35
2019-01-29T10:53:55.497Z,2.34
2019-01-29T10:54:55.477Z,2.36
2019-01-29T10:55:55.488Z,2.41
2019-01-29T10:56:55.458Z,2.41
2019-01-29T10:57:55.543Z,2.43
2019-01-29T10:58:55.450Z,2.43
2019-01-29T10:59:55.429Z,2.46
2019-01-29T11:00:55.443Z,2.52
2019-01-29T11:01:55.399Z,2.49
2019-01-29T11:02:55.417Z,2.49
2019-01-29T11:03:55.396Z,2.46
2019-01-29T11:04:55.383Z,2.53
2019-01-29T11:05:55.378Z,2.52
2019-01-29T11:06:55.351Z,2.53
2019-01-29T11:07:55.352Z,2.54
2019-01-29T11:08:55.323Z,2.49
2019-01-29T11:09:55.321Z,2.52
2019-01-29T11:10:55.330Z,2.59
2019-01-29T11:11:55.300Z,2.53
2019-01-29T11:12:55.290Z,2.56
2019-01-29T11:13:55.269Z,2.63
2019-01-29T11:14:55.266Z,2.59
2019-01-29T11:15:55.294Z,2.63
2019-01-29T11:16:55.246Z,2.61
2019-01-29T11:17:55.228Z,2.75
2019-01-29T11:19:02.943Z,2.72
2019-01-29T11:19:56.200Z,2.77
2019-01-29T11:20:55.207Z,2.81
2019-01-29T11:21:55.945Z,2.82
2019-01-29T11:22:55.184Z,2.85
2019-01-29T11:23:55.163Z,2.79
2019-01-29T11:24:55.153Z,2.85
2019-01-29T11:25:56.169Z,2.97
2019-01-29T11:26:55.143Z,3.06
2019-01-29T11:27:55.137Z,3.10
2019-01-29T11:28:55.116Z,3.10
2019-01-29T11:29:55.098Z,3.13
2019-01-29T11:30:55.101Z,3.08
2019-01-29T11:31:55.071Z,3.21
2019-01-29T11:32:55.071Z,3.21
2019-01-29T11:33:55.045Z,3.21
2019-01-29T11:34:55.047Z,3.29
2019-01-29T11:35:55.030Z,3.24
2019-01-29T11:36:55.045Z,3.31
2019-01-29T11:37:55.048Z,3.32
2019-01-29T11:38:55.008Z,3.24
2019-01-29T11:39:54.983Z,3.31
2019-01-29T11:40:54.968Z,3.23
2019-01-29T11:41:54.970Z,3.26
2019-01-29T11:42:54.963Z,3.29
2019-01-29T11:43:55.047Z,3.31
2019-01-29T11:44:54.926Z,3.28
2019-01-29T11:45:54.920Z,3.24
2019-01-29T11:46:54.902Z,3.23
2019-01-29T11:47:54.935Z,3.29
2019-01-29T11:48:54.907Z,3.43
2019-01-29T11:49:54.872Z,3.36
2019-01-29T11:50:54.890Z,3.36
2019-01-29T11:51:54.848Z,3.47
2019-01-29T11:52:54.839Z,3.51
2019-01-29T11:53:54.858Z,3.45
2019-01-29T11:54:54.817Z,3.51
2019-01-29T11:55:54.828Z,3.48
2019-01-29T11:56:54.841Z,3.57
2019-01-29T11:57:54.783Z,3.52
2019-01-29T11:58:54.806Z,3.47
2019-01-29T11:59:54.761Z,3.58
2019-01-29T12:00:54.761Z,3.57
2019-01-29T12:01:54.761Z,3.52
2019-01-29T12:02:54.731Z,3.58
2019-01-29T12:03:54.749Z,3.55
2019-01-29T12:04:54.720Z,3.70
2019-01-29T12:05:54.703Z,3.69
2019-01-29T12:06:54.684Z,3.66
2019-01-29T12:07:54.683Z,3.68
2019-01-29T12:08:54.688Z,3.70
2019-01-29T12:09:56.506Z,3.73
2019-01-29T12:10:54.643Z,3.84
2019-01-29T12:11:54.664Z,3.78
2019-01-29T12:12:54.621Z,3.78
2019-01-29T12:13:54.641Z,3.88
2019-01-29T12:14:54.596Z,3.80
2019-01-29T12:15:54.589Z,3.88
2019-01-29T12:16:54.577Z,3.87
2019-01-29T12:17:54.589Z,3.83
2019-01-29T12:18:54.556Z,3.97
2019-01-29T12:19:54.572Z,3.94
2019-01-29T12:20:54.541Z,3.96
2019-01-29T12:21:54.527Z,4.06
2019-01-29T12:22:54.510Z,3.96
2019-01-29T12:23:54.508Z,3.97
2019-01-29T12:24:54.493Z,4.00
2019-01-29T12:25:54.516Z,4.08
2019-01-29T12:26:54.471Z,4.00
2019-01-29T12:27:54.457Z,4.09
2019-01-29T12:28:54.454Z,4.14
2019-01-29T12:29:54.464Z,4.04
2019-01-29T12:30:54.440Z,4.05
2019-01-29T12:31:54.417Z,4.11
2019-01-29T12:32:54.414Z,4.11
2019-01-29T12:33:54.396Z,4.15
2019-01-29T12:34:54.411Z,4.12
2019-01-29T12:35:54.383Z,4.11
2019-01-29T12:36:54.368Z,4.16
2019-01-29T12:37:54.352Z,4.24
2019-01-29T12:38:54.343Z,4.23
2019-01-29T12:39:54.369Z,4.14
2019-01-29T12:40:54.331Z,4.09
2019-01-29T12:41:54.303Z,4.06
2019-01-29T12:42:54.301Z,3.96
2019-01-29T12:43:54.288Z,3.98
2019-01-29T12:44:54.325Z,4.04
2019-01-29T12:45:54.283Z,4.00
2019-01-29T12:46:54.247Z,3.96
2019-01-29T12:47:54.237Z,4.00
2019-01-29T12:48:54.226Z,4.02
2019-01-29T12:49:54.219Z,4.00
2019-01-29T12:50:54.243Z,3.96
2019-01-29T12:51:54.192Z,4.04
2019-01-29T12:52:54.199Z,4.09
2019-01-29T12:53:54.170Z,4.08
2019-01-29T12:54:54.172Z,4.22
2019-01-29T12:55:54.174Z,4.23
2019-01-29T12:56:54.141Z,4.18
2019-01-29T12:57:54.152Z,4.24
2019-01-29T12:58:54.132Z,4.20
2019-01-29T12:59:54.116Z,4.24
2019-01-29T13:00:54.162Z,4.26
2019-01-29T13:01:54.102Z,4.30
2019-01-29T13:02:54.075Z,4.32
2019-01-29T13:03:54.071Z,4.37
2019-01-29T13:04:54.062Z,4.44
2019-01-29T13:05:54.055Z,4.40
2019-01-29T13:06:54.036Z,4.42
2019-01-29T13:07:54.032Z,4.36
2019-01-29T13:08:54.012Z,4.47
2019-01-29T13:09:53.995Z,4.45
2019-01-29T13:10:54.022Z,4.37
2019-01-29T13:11:53.971Z,4.37
2019-01-29T13:12:53.973Z,4.40
2019-01-29T13:13:53.977Z,4.36
2019-01-29T13:14:53.950Z,4.36
2019-01-29T13:15:53.983Z,4.36
2019-01-29T13:16:53.951Z,4.32
2019-01-29T13:17:53.906Z,4.33